עמוד ראשי
METAR-TAF:

METAR-TAF

שדות תעופה :

אי הפסחא, צ'ילה

קו רוחב: 27-09S, קו אורך: 109-25W, גובה: 51מטר

תצפית מזג אוויר נוכחית

הדו"ח נערך לפני 52דקות, בשעה 10:00 UTC
רוח 6קשר מכיוון דרום-מערב, משתנה בין דרום/דרום-מזרח ו מערב/צפון-מערב
טמפרטורת 20 צלסיוס
לחות 78%
לחץ 1014 hPa
ראות 10 קילומטר או יותר
עננים פזורים בגובה 1500רגל

METAR: SCIP 271000Z 23006KT 150V290 9999 SCT015 20/16 Q1014 NOSIG

זמן: 04:52 (10:52 UTC)

תחזית

הדו"ח נערך לפני 6 שעות ו 22דקות, בשעה 04:30 UTC
תחזית בתוקף מ 27 ב 06 UTC עד 28 ב 06 UTC
רוח 14קשר מכיוון מערב
ראות 10 קילומטר או יותר
עננים פזורים בגובה 2500רגל
זמנית מ -
27 ב 09 UTC עד 27 ב 16 UTC
רוח 18קשר מכיוון דרום-מערב
ראות: 5000מטר
עננים פזורים בגובה 1500רגל
עננים בינוניים בגובה 3500רגל
ממטרי גשם קלים
יעשה מ
27 ב 13 UTC עד 27 ב 15 UTC
רוח 15קשר מכיוון דרום
יעשה מ
28 ב 02 UTC עד 28 ב 05 UTC
רוח 8קשר מכיוון דרום-מזרח

TAF: SCIP 270430Z 2706/2806 27014KT 9999 SCT025 TN18/2710Z TX23/2719Z TEMPO 2709/2716 23018KT 5000 -SHRA SCT015 BKN035 BECMG 2713/2715 17015KT BECMG 2802/2805 13008KT

תצפיות ותחזיות מזג אוויר לגבי יותר מ- 4,000 שדות תעופה ברחבי העולם. דוחות METAR ו- TAF.

התחנות הזמינות מסומנות בנקודות צהובות ואדומות על גבי המפה.

העבר את העכבר לנקודה הצבעונית על מנת לראות את שם התחנה.

לאחר מכן, לחץ כדי לראות את תוכן ואת תחזיות מזג האוויר.

כדי לשנות את המפה: לחץ על הכפתורים הירוקים עם הפלוס השחור כדי להתקרב; על הכפתור הירוק עם המקף כדי להתרחק; או בחיצים הירוקים למפות סמוכות.


METAR-TAF: